createdAt,value
2023-02-02T00:01:51.120Z,97502.41
2023-02-02T00:04:22.042Z,97501.09
2023-02-02T00:06:49.253Z,97512.69
2023-02-02T00:09:17.858Z,97517.00
2023-02-02T00:11:45.683Z,97510.13
2023-02-02T00:14:13.246Z,97501.31
2023-02-02T00:16:39.798Z,97503.28
2023-02-02T00:19:17.611Z,97496.97
2023-02-02T00:21:45.070Z,97497.84
2023-02-02T00:24:13.411Z,97506.59
2023-02-02T00:26:41.931Z,97503.16
2023-02-02T00:29:14.522Z,97501.44
2023-02-02T00:31:41.168Z,97499.13
2023-02-02T00:34:07.835Z,97507.81
2023-02-02T00:36:34.410Z,97519.00
2023-02-02T00:39:01.065Z,97508.44
2023-02-02T00:41:27.670Z,97502.50
2023-02-02T00:44:12.880Z,97511.19
2023-02-02T00:46:41.343Z,97510.25
2023-02-02T00:49:08.784Z,97505.69
2023-02-02T00:51:36.820Z,97509.28
2023-02-02T00:54:04.793Z,97504.25
2023-02-02T00:56:31.456Z,97500.78
2023-02-02T00:58:58.106Z,97501.63
2023-02-02T01:01:25.001Z,97498.75
2023-02-02T01:03:52.034Z,97494.47
2023-02-02T01:06:19.211Z,97498.91
2023-02-02T01:08:46.250Z,97505.19
2023-02-02T01:11:12.830Z,97501.50
2023-02-02T01:13:39.672Z,97509.34
2023-02-02T01:16:07.431Z,97509.16
2023-02-02T01:18:34.053Z,97507.53
2023-02-02T01:21:04.179Z,97507.34
2023-02-02T01:23:31.070Z,97508.19
2023-02-02T01:25:59.591Z,97506.59
2023-02-02T01:28:27.440Z,97510.25
2023-02-02T01:30:54.718Z,97503.28
2023-02-02T01:33:23.088Z,97501.38
2023-02-02T01:35:51.966Z,97500.47
2023-02-02T01:38:19.484Z,97514.44
2023-02-02T01:40:51.453Z,97504.63
2023-02-02T01:43:27.932Z,97507.28
2023-02-02T01:45:56.260Z,97502.00
2023-02-02T01:48:30.483Z,97493.38
2023-02-02T01:51:01.290Z,97496.00
2023-02-02T01:53:29.568Z,97497.91
2023-02-02T01:55:56.821Z,97500.16
2023-02-02T01:58:28.131Z,97509.91
2023-02-02T02:00:55.995Z,97506.44
2023-02-02T02:03:26.371Z,97500.47
2023-02-02T02:06:05.772Z,97507.34
2023-02-02T02:08:47.054Z,97511.38
2023-02-02T02:11:14.551Z,97505.47
2023-02-02T02:14:00.343Z,97502.53
2023-02-02T02:16:36.032Z,97503.59
2023-02-02T02:19:15.551Z,97507.06
2023-02-02T02:22:37.536Z,97503.59
2023-02-02T02:26:07.195Z,97505.94
2023-02-02T02:28:56.717Z,97512.28
2023-02-02T02:31:23.761Z,97508.00
2023-02-02T02:34:03.797Z,97521.69
2023-02-02T02:36:45.124Z,97515.75
2023-02-02T02:39:24.360Z,97518.94
2023-02-02T02:41:58.544Z,97519.75
2023-02-02T02:44:27.506Z,97508.50
2023-02-02T02:46:55.179Z,97514.56
2023-02-02T02:49:21.834Z,97519.75
2023-02-02T02:51:53.499Z,97515.69
2023-02-02T02:54:36.038Z,97514.53
2023-02-02T02:57:39.396Z,97514.53
2023-02-02T03:00:20.854Z,97515.56
2023-02-02T03:03:01.520Z,97518.16
2023-02-02T03:05:51.842Z,97510.16
2023-02-02T03:08:49.130Z,97512.88
2023-02-02T03:11:16.585Z,97505.16
2023-02-02T03:13:43.577Z,97500.00
2023-02-02T03:16:11.027Z,97507.59
2023-02-02T03:18:38.383Z,97508.56
2023-02-02T03:21:05.207Z,97504.38
2023-02-02T03:23:31.814Z,97499.81
2023-02-02T03:25:59.641Z,97492.56
2023-02-02T03:28:27.566Z,97497.19
2023-02-02T03:30:55.119Z,97506.94
2023-02-02T03:33:21.915Z,97505.03
2023-02-02T03:35:48.463Z,97500.91
2023-02-02T03:38:15.043Z,97497.50
2023-02-02T03:40:41.770Z,97500.97
2023-02-02T03:43:08.819Z,97499.09
2023-02-02T03:45:35.665Z,97494.53
2023-02-02T03:48:05.896Z,97492.94
2023-02-02T03:50:33.311Z,97492.94
2023-02-02T03:53:00.335Z,97504.44
2023-02-02T03:55:27.021Z,97496.53
2023-02-02T03:57:53.656Z,97503.53
2023-02-02T04:00:20.677Z,97505.88
2023-02-02T04:02:47.277Z,97499.94
2023-02-02T04:05:13.919Z,97506.06
2023-02-02T04:07:40.563Z,97506.88
2023-02-02T04:10:07.389Z,97503.69
2023-02-02T04:12:33.935Z,97509.47
2023-02-02T04:15:00.493Z,97514.63
2023-02-02T04:17:27.133Z,97519.16
2023-02-02T04:19:58.130Z,97524.50
2023-02-02T04:22:26.153Z,97513.97
2023-02-02T04:24:52.951Z,97525.28
2023-02-02T04:27:19.700Z,97517.78
2023-02-02T04:29:46.374Z,97518.00
2023-02-02T04:32:17.520Z,97525.03
2023-02-02T04:34:44.920Z,97525.94
2023-02-02T04:37:12.072Z,97515.69
2023-02-02T04:39:38.767Z,97517.31
2023-02-02T04:42:05.446Z,97526.97
2023-02-02T04:44:32.105Z,97532.22
2023-02-02T04:46:58.710Z,97531.34
2023-02-02T04:49:25.312Z,97526.78
2023-02-02T04:51:51.925Z,97527.53
2023-02-02T04:54:18.536Z,97531.44
2023-02-02T04:56:45.131Z,97543.44
2023-02-02T04:59:11.762Z,97536.22
2023-02-02T05:01:38.339Z,97541.63
2023-02-02T05:04:05.128Z,97545.13
2023-02-02T05:06:31.757Z,97540.91
2023-02-02T05:08:58.388Z,97540.78
2023-02-02T05:11:24.970Z,97551.16
2023-02-02T05:13:53.786Z,97563.16
2023-02-02T05:16:21.710Z,97564.00
2023-02-02T05:18:52.688Z,97567.59
2023-02-02T05:21:19.842Z,97561.56
2023-02-02T05:23:46.772Z,97557.25
2023-02-02T05:26:17.136Z,97551.06
2023-02-02T05:28:43.740Z,97560.94
2023-02-02T05:31:10.389Z,97564.00
2023-02-02T05:33:37.135Z,97569.34
2023-02-02T05:36:04.757Z,97571.28
2023-02-02T05:38:31.631Z,97573.09
2023-02-02T05:40:58.352Z,97563.34
2023-02-02T05:43:26.411Z,97569.16
2023-02-02T05:45:53.612Z,97567.53
2023-02-02T05:48:20.362Z,97563.34
2023-02-02T05:51:07.713Z,97560.72
2023-02-02T05:53:34.287Z,97561.50
2023-02-02T05:56:00.933Z,97563.38
2023-02-02T05:58:28.168Z,97572.81
2023-02-02T06:00:56.618Z,97571.75
2023-02-02T06:03:23.760Z,97585.03
2023-02-02T06:05:50.463Z,97592.09
2023-02-02T06:08:17.100Z,97595.47
2023-02-02T06:10:44.035Z,97593.03
2023-02-02T06:13:11.026Z,97585.94
2023-02-02T06:15:37.814Z,97602.56
2023-02-02T06:18:06.720Z,97602.34
2023-02-02T06:20:34.793Z,97595.34
2023-02-02T06:23:01.386Z,97587.63
2023-02-02T06:25:28.267Z,97581.44
2023-02-02T06:27:59.011Z,97573.53
2023-02-02T06:30:25.966Z,97571.13
2023-02-02T06:32:53.174Z,97569.44
2023-02-02T06:35:20.136Z,97570.38
2023-02-02T06:37:46.734Z,97573.72
2023-02-02T06:40:13.839Z,97569.13
2023-02-02T06:42:40.959Z,97566.50
2023-02-02T06:45:08.290Z,97573.59
2023-02-02T06:47:34.935Z,97576.97
2023-02-02T06:50:01.502Z,97579.56
2023-02-02T06:52:28.282Z,97584.81
2023-02-02T06:54:54.931Z,97574.94
2023-02-02T06:57:21.576Z,97589.91
2023-02-02T06:59:48.153Z,97596.03
2023-02-02T07:02:14.769Z,97594.38
2023-02-02T07:04:41.358Z,97600.53
2023-02-02T07:07:08.033Z,97608.44
2023-02-02T07:09:35.675Z,97607.78
2023-02-02T07:12:02.495Z,97596.34
2023-02-02T07:14:29.026Z,97607.78
2023-02-02T07:16:55.598Z,97602.41
2023-02-02T07:19:22.201Z,97601.69
2023-02-02T07:21:48.856Z,97601.69
2023-02-02T07:24:15.580Z,97605.09
2023-02-02T07:26:42.256Z,97616.56
2023-02-02T07:29:13.229Z,97612.00
2023-02-02T07:31:40.455Z,97619.56
2023-02-02T07:34:07.144Z,97611.72
2023-02-02T07:36:33.953Z,97614.22
2023-02-02T07:39:03.915Z,97615.91
2023-02-02T07:41:31.167Z,97606.25
2023-02-02T07:43:57.730Z,97615.56
2023-02-02T07:46:24.397Z,97625.34
2023-02-02T07:48:54.899Z,97630.53
2023-02-02T07:51:21.893Z,97632.34
2023-02-02T07:53:50.427Z,97623.59
2023-02-02T07:56:22.351Z,97630.66
2023-02-02T07:58:52.216Z,97636.59
2023-02-02T08:01:20.540Z,97628.81
2023-02-02T08:03:47.238Z,97620.19
2023-02-02T08:06:25.527Z,97619.41
2023-02-02T08:08:52.315Z,97625.19
2023-02-02T08:11:21.968Z,97629.38
2023-02-02T08:13:57.232Z,97637.47
2023-02-02T08:16:25.193Z,97637.22
2023-02-02T08:18:51.917Z,97644.56
2023-02-02T08:21:19.405Z,97641.97
2023-02-02T08:23:46.534Z,97648.44
2023-02-02T08:26:18.932Z,97650.59
2023-02-02T08:28:48.636Z,97641.31
2023-02-02T08:31:19.280Z,97647.19
2023-02-02T08:33:46.324Z,97650.28
2023-02-02T08:36:14.913Z,97651.19
2023-02-02T08:38:41.913Z,97657.50
2023-02-02T08:41:10.352Z,97649.50
2023-02-02T08:43:37.437Z,97652.28
2023-02-02T08:46:05.730Z,97644.50
2023-02-02T08:48:34.651Z,97649.78
2023-02-02T08:51:01.913Z,97647.78
2023-02-02T08:53:29.175Z,97641.63
2023-02-02T08:56:04.824Z,97651.66
2023-02-02T08:58:31.805Z,97653.31
2023-02-02T09:01:12.791Z,97648.97
2023-02-02T09:03:40.330Z,97664.09
2023-02-02T09:06:08.925Z,97665.72
2023-02-02T09:08:35.789Z,97664.69
2023-02-02T09:11:11.182Z,97667.44
2023-02-02T09:13:39.610Z,97670.06
2023-02-02T09:16:10.080Z,97671.81
2023-02-02T09:18:37.139Z,97671.28
2023-02-02T09:21:06.637Z,97681.78
2023-02-02T09:23:35.369Z,97681.63
2023-02-02T09:26:28.453Z,97682.69
2023-02-02T09:29:02.660Z,97679.50
2023-02-02T09:31:31.251Z,97691.41
2023-02-02T09:34:02.091Z,97688.56
2023-02-02T09:36:29.328Z,97692.59
2023-02-02T09:38:55.914Z,97706.25
2023-02-02T09:41:37.870Z,97696.34
2023-02-02T09:44:19.950Z,97699.41
2023-02-02T09:47:01.294Z,97702.19
2023-02-02T09:49:49.415Z,97696.19
2023-02-02T09:52:23.186Z,97705.59
2023-02-02T09:54:52.305Z,97701.63
2023-02-02T09:57:25.517Z,97716.09
2023-02-02T09:59:54.113Z,97714.13
2023-02-02T10:02:45.785Z,97719.56
2023-02-02T10:05:18.763Z,97716.25
2023-02-02T10:07:50.441Z,97717.66
2023-02-02T10:10:28.831Z,97721.13
2023-02-02T10:13:22.253Z,97718.00
2023-02-02T10:16:17.238Z,97719.28
2023-02-02T10:18:56.135Z,97732.59
2023-02-02T10:21:33.551Z,97721.91
2023-02-02T10:24:02.897Z,97716.53
2023-02-02T10:26:51.760Z,97718.91
2023-02-02T10:29:24.221Z,97721.00
2023-02-02T10:32:12.798Z,97721.34
2023-02-02T10:35:13.620Z,97734.16
2023-02-02T10:38:09.809Z,97731.03
2023-02-02T10:40:39.631Z,97747.00
2023-02-02T10:43:46.137Z,97742.31
2023-02-02T10:46:19.915Z,97732.28
2023-02-02T10:48:48.112Z,97739.06
2023-02-02T10:51:27.766Z,97734.50
2023-02-02T10:53:57.543Z,97733.72
2023-02-02T10:56:34.711Z,97730.31
2023-02-02T10:59:14.752Z,97724.09
2023-02-02T11:01:41.401Z,97735.09
2023-02-02T11:04:29.098Z,97732.22
2023-02-02T11:06:56.234Z,97720.31
2023-02-02T11:09:32.856Z,97738.59
2023-02-02T11:12:33.059Z,97733.91
2023-02-02T11:15:06.715Z,97739.81
2023-02-02T11:17:34.810Z,97726.31
2023-02-02T11:20:01.843Z,97730.81
2023-02-02T11:22:38.463Z,97726.25
2023-02-02T11:25:07.967Z,97739.03
2023-02-02T11:27:43.191Z,97733.78
2023-02-02T11:30:27.545Z,97742.00
2023-02-02T11:32:55.725Z,97753.44
2023-02-02T11:35:24.818Z,97743.44
2023-02-02T11:38:09.756Z,97747.50
2023-02-02T11:40:40.866Z,97750.94
2023-02-02T11:43:21.030Z,97739.47
2023-02-02T11:46:00.209Z,97736.91
2023-02-02T11:48:32.517Z,97746.13
2023-02-02T11:51:01.324Z,97745.53
2023-02-02T11:53:37.871Z,97756.63
2023-02-02T11:56:18.195Z,97751.53
2023-02-02T11:58:53.383Z,97752.78
2023-02-02T12:01:28.334Z,97744.69
2023-02-02T12:03:57.356Z,97748.16
2023-02-02T12:06:44.184Z,97757.53
2023-02-02T12:09:19.658Z,97755.50
2023-02-02T12:12:09.820Z,97749.53
2023-02-02T12:14:45.347Z,97742.31
2023-02-02T12:17:21.897Z,97747.41
2023-02-02T12:20:07.034Z,97741.47
2023-02-02T12:22:36.467Z,97738.34
2023-02-02T12:25:15.375Z,97747.91
2023-02-02T12:28:27.584Z,97756.69
2023-02-02T12:31:03.271Z,97752.91
2023-02-02T12:33:29.856Z,97741.44
2023-02-02T12:36:22.362Z,97746.63
2023-02-02T12:39:25.869Z,97745.94
2023-02-02T12:42:23.997Z,97741.81
2023-02-02T12:44:59.239Z,97741.22
2023-02-02T12:47:25.761Z,97743.00
2023-02-02T12:50:04.725Z,97743.69
2023-02-02T12:52:53.771Z,97744.00
2023-02-02T12:55:36.806Z,97743.06
2023-02-02T12:58:18.691Z,97745.53
2023-02-02T13:01:05.214Z,97744.94
2023-02-02T13:03:56.529Z,97751.06
2023-02-02T13:06:45.024Z,97739.84
2023-02-02T13:09:21.586Z,97741.47
2023-02-02T13:11:53.689Z,97754.25
2023-02-02T13:14:25.840Z,97740.72
2023-02-02T13:16:57.151Z,97752.72
2023-02-02T13:19:32.949Z,97756.97
2023-02-02T13:22:02.142Z,97750.34
2023-02-02T13:24:31.920Z,97750.63
2023-02-02T13:27:02.067Z,97757.06
2023-02-02T13:29:47.300Z,97755.53
2023-02-02T13:32:30.904Z,97756.88
2023-02-02T13:35:13.289Z,97764.09
2023-02-02T13:37:47.952Z,97765.78
2023-02-02T13:40:23.738Z,97774.50
2023-02-02T13:43:11.488Z,97768.22
2023-02-02T13:45:48.797Z,97778.91
2023-02-02T13:48:31.458Z,97783.47
2023-02-02T13:51:10.166Z,97771.97
2023-02-02T13:53:54.798Z,97771.19
2023-02-02T13:56:40.585Z,97770.19
2023-02-02T13:59:16.061Z,97756.66
2023-02-02T14:01:48.482Z,97774.84
2023-02-02T14:04:26.083Z,97775.94
2023-02-02T14:07:07.081Z,97784.88
2023-02-02T14:09:37.519Z,97789.13
2023-02-02T14:12:10.860Z,97780.53
2023-02-02T14:14:39.887Z,97792.09
2023-02-02T14:17:30.107Z,97790.50
2023-02-02T14:20:01.651Z,97802.66
2023-02-02T14:22:50.821Z,97802.00
2023-02-02T14:25:29.967Z,97793.00
2023-02-02T14:27:59.473Z,97798.78
2023-02-02T14:30:32.804Z,97800.81
2023-02-02T14:33:23.135Z,97806.25
2023-02-02T14:35:49.680Z,97812.69
2023-02-02T14:39:09.666Z,97805.78
2023-02-02T14:42:20.376Z,97817.03
2023-02-02T14:45:07.915Z,97810.72
2023-02-02T14:48:01.267Z,97815.56
2023-02-02T14:50:40.559Z,97825.22
2023-02-02T14:53:16.109Z,97821.91
2023-02-02T14:56:05.537Z,97823.50
2023-02-02T14:58:36.839Z,97829.53
2023-02-02T15:01:24.233Z,97834.06
2023-02-02T15:03:54.004Z,97826.91
2023-02-02T15:06:34.300Z,97833.69
2023-02-02T15:09:23.455Z,97830.13
2023-02-02T15:12:01.152Z,97841.13
2023-02-02T15:14:55.942Z,97836.72
2023-02-02T15:17:33.373Z,97839.31
2023-02-02T15:20:24.739Z,97846.97
2023-02-02T15:22:55.308Z,97851.28
2023-02-02T15:25:32.261Z,97840.22
2023-02-02T15:28:13.916Z,97845.72
2023-02-02T15:30:45.294Z,97849.53
2023-02-02T15:33:40.152Z,97848.56
2023-02-02T15:36:14.151Z,97852.16
2023-02-02T15:38:43.101Z,97851.44
2023-02-02T15:41:32.709Z,97858.31
2023-02-02T15:44:00.171Z,97862.06
2023-02-02T15:46:35.139Z,97860.22
2023-02-02T15:49:33.170Z,97867.03
2023-02-02T15:52:03.868Z,97867.97
2023-02-02T15:54:35.333Z,97863.09
2023-02-02T15:57:02.822Z,97877.91
2023-02-02T15:59:38.480Z,97881.00
2023-02-02T16:02:23.166Z,97887.88
2023-02-02T16:04:49.844Z,97891.47
2023-02-02T16:07:26.395Z,97891.28
2023-02-02T16:09:53.464Z,97891.34
2023-02-02T16:12:23.494Z,97892.50
2023-02-02T16:14:53.641Z,97908.50
2023-02-02T16:17:32.500Z,97910.13
2023-02-02T16:20:08.966Z,97905.88
2023-02-02T16:22:37.147Z,97911.28
2023-02-02T16:25:09.890Z,97909.28
2023-02-02T16:27:37.772Z,97919.09
2023-02-02T16:30:08.362Z,97917.59
2023-02-02T16:32:38.845Z,97921.97
2023-02-02T16:35:27.623Z,97923.69
2023-02-02T16:38:31.583Z,97926.25
2023-02-02T16:41:09.343Z,97932.34
2023-02-02T16:43:38.561Z,97938.56
2023-02-02T16:46:16.537Z,97938.94
2023-02-02T16:48:56.901Z,97939.47
2023-02-02T16:51:26.916Z,97945.50
2023-02-02T16:54:10.670Z,97951.72
2023-02-02T16:56:40.147Z,97948.97
2023-02-02T16:59:22.006Z,97945.88
2023-02-02T17:01:52.816Z,97944.25
2023-02-02T17:04:24.767Z,97947.81
2023-02-02T17:06:53.677Z,97953.31
2023-02-02T17:09:35.488Z,97952.31
2023-02-02T17:12:14.258Z,97948.72
2023-02-02T17:15:00.118Z,97956.72
2023-02-02T17:17:27.455Z,97969.06
2023-02-02T17:19:54.273Z,97963.94
2023-02-02T17:22:24.633Z,97968.97
2023-02-02T17:24:52.370Z,97964.88
2023-02-02T17:27:27.436Z,97962.88
2023-02-02T17:29:55.383Z,97976.25
2023-02-02T17:32:23.740Z,97973.72
2023-02-02T17:34:50.593Z,97988.59
2023-02-02T17:37:17.187Z,97988.84
2023-02-02T17:39:43.844Z,97989.81
2023-02-02T17:42:27.265Z,97992.25
2023-02-02T17:44:54.046Z,97989.34
2023-02-02T17:47:20.625Z,97986.69
2023-02-02T17:49:47.200Z,97986.91
2023-02-02T17:52:13.960Z,97986.31
2023-02-02T17:54:40.571Z,97997.84
2023-02-02T17:57:07.279Z,98008.72
2023-02-02T17:59:33.881Z,97996.88
2023-02-02T18:02:01.525Z,97996.03
2023-02-02T18:04:28.576Z,98008.38
2023-02-02T18:06:55.150Z,98010.38
2023-02-02T18:09:21.754Z,98004.56
2023-02-02T18:11:49.766Z,98006.38
2023-02-02T18:14:16.469Z,98009.91
2023-02-02T18:16:43.021Z,98010.81
2023-02-02T18:19:10.349Z,98013.38
2023-02-02T18:21:37.427Z,98010.81
2023-02-02T18:24:04.317Z,98010.78
2023-02-02T18:26:32.573Z,97998.59
2023-02-02T18:28:59.811Z,98016.72
2023-02-02T18:31:27.511Z,98013.31
2023-02-02T18:33:54.571Z,98016.91
2023-02-02T18:36:23.576Z,98017.81
2023-02-02T18:38:51.369Z,98023.00
2023-02-02T18:41:21.445Z,98020.41
2023-02-02T18:43:48.357Z,98019.59
2023-02-02T18:46:16.533Z,98022.81
2023-02-02T18:48:43.648Z,98024.78
2023-02-02T18:51:18.169Z,98027.28
2023-02-02T18:53:46.650Z,98028.28
2023-02-02T18:56:14.720Z,98030.19
2023-02-02T18:58:41.537Z,98031.59
2023-02-02T19:01:16.983Z,98028.00
2023-02-02T19:03:48.272Z,98024.78
2023-02-02T19:06:33.597Z,98030.91
2023-02-02T19:09:00.187Z,98024.78
2023-02-02T19:11:34.636Z,98028.13
2023-02-02T19:14:01.498Z,98023.00
2023-02-02T19:16:31.238Z,98025.56
2023-02-02T19:19:04.367Z,98030.91
2023-02-02T19:21:31.050Z,98028.25
2023-02-02T19:23:59.545Z,98023.88
2023-02-02T19:26:28.104Z,98026.53
2023-02-02T19:29:12.931Z,98024.78
2023-02-02T19:31:40.138Z,98021.28
2023-02-02T19:34:12.448Z,98016.91
2023-02-02T19:36:42.103Z,98026.47
2023-02-02T19:39:16.055Z,98018.50
2023-02-02T19:41:43.293Z,98027.44
2023-02-02T19:44:16.929Z,98024.84
2023-02-02T19:46:46.227Z,98028.47
2023-02-02T19:49:34.317Z,98029.03
2023-02-02T19:52:03.909Z,98021.31
2023-02-02T19:54:35.884Z,98028.47
2023-02-02T19:57:26.713Z,98035.06
2023-02-02T19:59:54.806Z,98034.50
2023-02-02T20:02:36.739Z,98037.00
2023-02-02T20:05:18.750Z,98036.13
2023-02-02T20:07:46.224Z,98044.88
2023-02-02T20:10:16.160Z,98046.69
2023-02-02T20:12:42.798Z,98039.69
2023-02-02T20:15:32.326Z,98037.13
2023-02-02T20:18:01.067Z,98031.31
2023-02-02T20:20:38.896Z,98044.25
2023-02-02T20:23:30.301Z,98043.22
2023-02-02T20:25:57.883Z,98048.03
2023-02-02T20:28:34.085Z,98040.66
2023-02-02T20:31:05.825Z,98045.91
2023-02-02T20:33:33.199Z,98046.03
2023-02-02T20:36:02.401Z,98051.81
2023-02-02T20:38:37.459Z,98054.25
2023-02-02T20:41:05.846Z,98058.88
2023-02-02T20:43:32.709Z,98052.97
2023-02-02T20:45:59.337Z,98054.66
2023-02-02T20:48:27.596Z,98054.44
2023-02-02T20:50:54.201Z,98053.75
2023-02-02T20:53:20.808Z,98051.13
2023-02-02T20:55:47.375Z,98055.34
2023-02-02T20:58:14.053Z,98050.09
2023-02-02T21:00:40.756Z,98050.72
2023-02-02T21:03:07.386Z,98044.88
2023-02-02T21:05:34.002Z,98048.72
2023-02-02T21:08:00.651Z,98045.25
2023-02-02T21:10:28.356Z,98041.03
2023-02-02T21:12:55.624Z,98043.69
2023-02-02T21:15:22.974Z,98042.22
2023-02-02T21:17:50.009Z,98039.81
2023-02-02T21:20:17.279Z,98037.13
2023-02-02T21:22:43.939Z,98036.44
2023-02-02T21:25:11.246Z,98046.84
2023-02-02T21:27:41.086Z,98059.94
2023-02-02T21:30:10.860Z,98063.47
2023-02-02T21:32:37.668Z,98057.38
2023-02-02T21:35:06.411Z,98062.44
2023-02-02T21:37:35.788Z,98059.94
2023-02-02T21:40:11.395Z,98057.59
2023-02-02T21:42:38.213Z,98060.13
2023-02-02T21:45:27.114Z,98059.78
2023-02-02T21:47:59.109Z,98051.91
2023-02-02T21:50:28.896Z,98054.84
2023-02-02T21:53:12.899Z,98049.47
2023-02-02T21:55:40.738Z,98039.22
2023-02-02T21:58:34.124Z,98039.94
2023-02-02T22:01:18.055Z,98037.38
2023-02-02T22:03:46.851Z,98032.81
2023-02-02T22:06:51.898Z,98031.22
2023-02-02T22:09:39.164Z,98025.91
2023-02-02T22:12:32.598Z,98032.88
2023-02-02T22:15:04.842Z,98031.91
2023-02-02T22:17:41.890Z,98029.16
2023-02-02T22:20:34.015Z,98032.88
2023-02-02T22:23:03.033Z,98044.13
2023-02-02T22:25:37.270Z,98049.16
2023-02-02T22:28:12.921Z,98051.88
2023-02-02T22:30:41.539Z,98060.53
2023-02-02T22:33:11.131Z,98056.78
2023-02-02T22:35:38.701Z,98059.56
2023-02-02T22:38:06.252Z,98066.31
2023-02-02T22:40:33.128Z,98069.84
2023-02-02T22:43:05.672Z,98068.88
2023-02-02T22:45:32.245Z,98074.84
2023-02-02T22:47:59.126Z,98069.78
2023-02-02T22:50:28.595Z,98063.25
2023-02-02T22:52:55.621Z,98065.41
2023-02-02T22:55:22.664Z,98060.28
2023-02-02T22:57:49.242Z,98067.84
2023-02-02T23:00:22.109Z,98068.88
2023-02-02T23:02:49.135Z,98064.44
2023-02-02T23:05:16.946Z,98069.66
2023-02-02T23:07:44.265Z,98070.63
2023-02-02T23:10:13.460Z,98062.91
2023-02-02T23:12:41.221Z,98072.47
2023-02-02T23:15:08.472Z,98059.41
2023-02-02T23:17:37.829Z,98070.69
2023-02-02T23:20:10.618Z,98068.69
2023-02-02T23:22:37.255Z,98068.75
2023-02-02T23:25:04.491Z,98070.53
2023-02-02T23:27:31.123Z,98069.66
2023-02-02T23:29:57.708Z,98071.63
2023-02-02T23:32:24.425Z,98076.72
2023-02-02T23:34:51.060Z,98073.31
2023-02-02T23:37:17.837Z,98086.66
2023-02-02T23:39:44.439Z,98089.94
2023-02-02T23:42:11.132Z,98072.59
2023-02-02T23:44:37.725Z,98073.19
2023-02-02T23:47:04.830Z,98084.47
2023-02-02T23:49:32.861Z,98085.31
2023-02-02T23:52:00.223Z,98068.06
2023-02-02T23:54:27.538Z,98061.13
2023-02-02T23:56:54.257Z,98048.91
2023-02-02T23:59:21.066Z,98052.69
